sensor_id;sensor_type;location;lat;lon;timestamp;P1;durP1;ratioP1;P2;durP2;ratioP2
7523;SDS011;3803;51.666;7.630;2023-02-28T00:00:20;2.67;;;2.40;;
7523;SDS011;3803;51.666;7.630;2023-02-28T00:00:41;3.67;;;2.30;;
7523;SDS011;3803;51.666;7.630;2023-02-28T00:01:03;4.00;;;2.40;;
7523;SDS011;3803;51.666;7.630;2023-02-28T00:01:23;3.70;;;2.50;;
7523;SDS011;3803;51.666;7.630;2023-02-28T00:01:44;2.80;;;2.60;;
7523;SDS011;3803;51.666;7.630;2023-02-28T00:02:05;2.60;;;2.40;;
7523;SDS011;3803;51.666;7.630;2023-02-28T00:02:25;2.40;;;2.20;;
7523;SDS011;3803;51.666;7.630;2023-02-28T00:02:46;2.30;;;2.10;;
7523;SDS011;3803;51.666;7.630;2023-02-28T00:03:07;2.40;;;2.20;;
7523;SDS011;3803;51.666;7.630;2023-02-28T00:03:27;2.90;;;2.13;;
7523;SDS011;3803;51.666;7.630;2023-02-28T00:03:48;2.60;;;2.00;;
7523;SDS011;3803;51.666;7.630;2023-02-28T00:04:10;2.50;;;2.00;;
7523;SDS011;3803;51.666;7.630;2023-02-28T00:04:31;2.30;;;2.10;;
7523;SDS011;3803;51.666;7.630;2023-02-28T00:04:51;2.42;;;2.22;;
7523;SDS011;3803;51.666;7.630;2023-02-28T00:05:23;2.45;;;2.25;;
7523;SDS011;3803;51.666;7.630;2023-02-28T00:05:44;3.97;;;2.53;;
7523;SDS011;3803;51.666;7.630;2023-02-28T00:06:05;3.97;;;2.58;;
7523;SDS011;3803;51.666;7.630;2023-02-28T00:06:27;3.60;;;2.30;;
7523;SDS011;3803;51.666;7.630;2023-02-28T00:07:49;2.50;;;2.30;;
7523;SDS011;3803;51.666;7.630;2023-02-28T00:08:11;2.40;;;2.20;;
7523;SDS011;3803;51.666;7.630;2023-02-28T00:08:31;2.50;;;2.30;;
7523;SDS011;3803;51.666;7.630;2023-02-28T00:08:52;2.50;;;2.30;;
7523;SDS011;3803;51.666;7.630;2023-02-28T00:09:13;2.72;;;2.53;;
7523;SDS011;3803;51.666;7.630;2023-02-28T00:09:33;2.90;;;2.70;;
7523;SDS011;3803;51.666;7.630;2023-02-28T00:09:54;3.10;;;2.80;;
7523;SDS011;3803;51.666;7.630;2023-02-28T00:10:16;3.45;;;2.80;;
7523;SDS011;3803;51.666;7.630;2023-02-28T00:10:43;3.75;;;2.70;;
7523;SDS011;3803;51.666;7.630;2023-02-28T00:11:04;3.30;;;2.50;;
7523;SDS011;3803;51.666;7.630;2023-02-28T00:11:27;2.50;;;2.30;;
7523;SDS011;3803;51.666;7.630;2023-02-28T00:11:47;2.58;;;2.10;;
7523;SDS011;3803;51.666;7.630;2023-02-28T00:12:08;3.10;;;2.10;;
7523;SDS011;3803;51.666;7.630;2023-02-28T00:12:30;3.47;;;2.20;;
7523;SDS011;3803;51.666;7.630;2023-02-28T00:12:51;3.63;;;2.60;;
7523;SDS011;3803;51.666;7.630;2023-02-28T00:13:12;3.67;;;2.60;;
7523;SDS011;3803;51.666;7.630;2023-02-28T00:13:33;3.72;;;2.72;;
7523;SDS011;3803;51.666;7.630;2023-02-28T00:13:55;2.80;;;2.50;;
7523;SDS011;3803;51.666;7.630;2023-02-28T00:14:15;3.70;;;2.40;;
7523;SDS011;3803;51.666;7.630;2023-02-28T00:14:36;3.30;;;2.20;;
7523;SDS011;3803;51.666;7.630;2023-02-28T00:14:57;3.03;;;2.10;;
7523;SDS011;3803;51.666;7.630;2023-02-28T00:15:17;2.25;;;2.10;;
7523;SDS011;3803;51.666;7.630;2023-02-28T00:15:39;2.25;;;2.05;;
7523;SDS011;3803;51.666;7.630;2023-02-28T00:16:00;2.13;;;1.93;;
7523;SDS011;3803;51.666;7.630;2023-02-28T00:16:23;2.30;;;2.10;;
7523;SDS011;3803;51.666;7.630;2023-02-28T00:16:43;2.60;;;2.40;;
7523;SDS011;3803;51.666;7.630;2023-02-28T00:17:04;2.70;;;2.50;;
7523;SDS011;3803;51.666;7.630;2023-02-28T00:17:26;2.95;;;2.50;;
7523;SDS011;3803;51.666;7.630;2023-02-28T00:17:46;3.20;;;2.42;;
7523;SDS011;3803;51.666;7.630;2023-02-28T00:18:07;2.67;;;2.40;;
7523;SDS011;3803;51.666;7.630;2023-02-28T00:18:27;2.60;;;2.40;;
7523;SDS011;3803;51.666;7.630;2023-02-28T00:18:48;3.20;;;2.50;;
7523;SDS011;3803;51.666;7.630;2023-02-28T00:19:09;2.78;;;2.47;;
7523;SDS011;3803;51.666;7.630;2023-02-28T00:19:33;2.70;;;2.50;;
7523;SDS011;3803;51.666;7.630;2023-02-28T00:19:54;2.60;;;2.40;;
7523;SDS011;3803;51.666;7.630;2023-02-28T00:20:14;2.50;;;2.30;;
7523;SDS011;3803;51.666;7.630;2023-02-28T00:20:35;2.60;;;2.40;;
7523;SDS011;3803;51.666;7.630;2023-02-28T00:20:56;2.60;;;2.40;;
7523;SDS011;3803;51.666;7.630;2023-02-28T00:21:18;2.70;;;2.50;;
7523;SDS011;3803;51.666;7.630;2023-02-28T00:21:39;4.52;;;2.60;;
7523;SDS011;3803;51.666;7.630;2023-02-28T00:22:00;3.97;;;2.35;;
7523;SDS011;3803;51.666;7.630;2023-02-28T00:22:21;3.97;;;2.20;;
7523;SDS011;3803;51.666;7.630;2023-02-28T00:22:43;2.28;;;2.10;;
7523;SDS011;3803;51.666;7.630;2023-02-28T00:23:05;3.45;;;2.30;;
7523;SDS011;3803;51.666;7.630;2023-02-28T00:23:26;3.80;;;2.40;;
7523;SDS011;3803;51.666;7.630;2023-02-28T00:23:48;3.67;;;2.67;;
7523;SDS011;3803;51.666;7.630;2023-02-28T00:24:08;2.70;;;2.50;;
7523;SDS011;3803;51.666;7.630;2023-02-28T00:24:29;2.57;;;2.37;;
7523;SDS011;3803;51.666;7.630;2023-02-28T00:24:49;3.95;;;2.30;;
7523;SDS011;3803;51.666;7.630;2023-02-28T00:25:10;5.18;;;2.38;;
7523;SDS011;3803;51.666;7.630;2023-02-28T00:25:33;5.50;;;2.30;;
7523;SDS011;3803;51.666;7.630;2023-02-28T00:25:54;3.10;;;2.22;;
7523;SDS011;3803;51.666;7.630;2023-02-28T00:26:15;5.00;;;2.20;;
7523;SDS011;3803;51.666;7.630;2023-02-28T00:26:39;6.72;;;2.20;;
7523;SDS011;3803;51.666;7.630;2023-02-28T00:26:59;6.40;;;2.10;;
7523;SDS011;3803;51.666;7.630;2023-02-28T00:27:20;1.90;;;1.80;;
7523;SDS011;3803;51.666;7.630;2023-02-28T00:27:41;2.05;;;1.90;;
7523;SDS011;3803;51.666;7.630;2023-02-28T00:28:02;2.10;;;1.90;;
7523;SDS011;3803;51.666;7.630;2023-02-28T00:28:23;2.30;;;2.10;;
7523;SDS011;3803;51.666;7.630;2023-02-28T00:28:45;2.35;;;2.15;;
7523;SDS011;3803;51.666;7.630;2023-02-28T00:29:05;2.40;;;2.20;;
7523;SDS011;3803;51.666;7.630;2023-02-28T00:29:26;2.33;;;2.13;;
7523;SDS011;3803;51.666;7.630;2023-02-28T00:29:47;2.40;;;2.20;;
7523;SDS011;3803;51.666;7.630;2023-02-28T00:30:09;2.47;;;2.27;;
7523;SDS011;3803;51.666;7.630;2023-02-28T00:30:32;2.50;;;2.30;;
7523;SDS011;3803;51.666;7.630;2023-02-28T00:30:52;4.07;;;2.30;;
7523;SDS011;3803;51.666;7.630;2023-02-28T00:31:13;3.60;;;2.10;;
7523;SDS011;3803;51.666;7.630;2023-02-28T00:31:34;3.30;;;1.93;;
7523;SDS011;3803;51.666;7.630;2023-02-28T00:31:54;2.65;;;1.90;;
7523;SDS011;3803;51.666;7.630;2023-02-28T00:32:15;3.10;;;2.10;;
7523;SDS011;3803;51.666;7.630;2023-02-28T00:32:35;3.30;;;2.30;;
7523;SDS011;3803;51.666;7.630;2023-02-28T00:32:56;2.72;;;2.30;;
7523;SDS011;3803;51.666;7.630;2023-02-28T00:33:19;2.45;;;2.17;;
7523;SDS011;3803;51.666;7.630;2023-02-28T00:33:41;2.75;;;2.22;;
7523;SDS011;3803;51.666;7.630;2023-02-28T00:34:02;2.65;;;2.30;;
7523;SDS011;3803;51.666;7.630;2023-02-28T00:34:22;2.40;;;2.20;;
7523;SDS011;3803;51.666;7.630;2023-02-28T00:34:43;2.50;;;2.30;;
7523;SDS011;3803;51.666;7.630;2023-02-28T00:35:04;2.92;;;2.40;;
7523;SDS011;3803;51.666;7.630;2023-02-28T00:35:25;3.35;;;2.58;;
7523;SDS011;3803;51.666;7.630;2023-02-28T00:35:46;2.80;;;2.30;;
7523;SDS011;3803;51.666;7.630;2023-02-28T00:36:08;2.88;;;2.20;;
7523;SDS011;3803;51.666;7.630;2023-02-28T00:36:30;3.10;;;2.20;;
7523;SDS011;3803;51.666;7.630;2023-02-28T00:36:51;3.00;;;2.22;;
7523;SDS011;3803;51.666;7.630;2023-02-28T00:37:11;2.43;;;2.23;;
7523;SDS011;3803;51.666;7.630;2023-02-28T00:37:32;2.40;;;2.20;;
7523;SDS011;3803;51.666;7.630;2023-02-28T00:37:53;2.40;;;2.20;;
7523;SDS011;3803;51.666;7.630;2023-02-28T00:38:13;2.42;;;2.22;;
7523;SDS011;3803;51.666;7.630;2023-02-28T00:38:34;2.60;;;2.22;;
7523;SDS011;3803;51.666;7.630;2023-02-28T00:38:55;4.07;;;2.10;;
7523;SDS011;3803;51.666;7.630;2023-02-28T00:39:16;4.47;;;2.17;;
7523;SDS011;3803;51.666;7.630;2023-02-28T00:39:37;4.60;;;2.38;;
7523;SDS011;3803;51.666;7.630;2023-02-28T00:39:59;3.03;;;2.33;;
7523;SDS011;3803;51.666;7.630;2023-02-28T00:40:20;3.13;;;2.30;;
7523;SDS011;3803;51.666;7.630;2023-02-28T00:40:41;2.50;;;2.20;;
7523;SDS011;3803;51.666;7.630;2023-02-28T00:41:02;3.17;;;2.40;;
7523;SDS011;3803;51.666;7.630;2023-02-28T00:41:24;2.40;;;2.20;;
7523;SDS011;3803;51.666;7.630;2023-02-28T00:41:45;2.40;;;2.20;;
7523;SDS011;3803;51.666;7.630;2023-02-28T00:42:06;2.30;;;2.20;;
7523;SDS011;3803;51.666;7.630;2023-02-28T00:42:28;2.17;;;2.08;;
7523;SDS011;3803;51.666;7.630;2023-02-28T00:42:48;2.45;;;2.25;;
7523;SDS011;3803;51.666;7.630;2023-02-28T00:43:09;2.90;;;2.20;;
7523;SDS011;3803;51.666;7.630;2023-02-28T00:43:37;5.53;;;2.67;;
7523;SDS011;3803;51.666;7.630;2023-02-28T00:43:59;5.30;;;2.70;;
7523;SDS011;3803;51.666;7.630;2023-02-28T00:44:19;4.30;;;2.53;;
7523;SDS011;3803;51.666;7.630;2023-02-28T00:44:42;2.70;;;2.50;;
7523;SDS011;3803;51.666;7.630;2023-02-28T00:45:41;3.00;;;2.70;;
7523;SDS011;3803;51.666;7.630;2023-02-28T00:46:02;2.53;;;2.33;;
7523;SDS011;3803;51.666;7.630;2023-02-28T00:46:24;2.30;;;2.15;;
7523;SDS011;3803;51.666;7.630;2023-02-28T00:46:44;2.40;;;2.20;;
7523;SDS011;3803;51.666;7.630;2023-02-28T00:47:05;2.40;;;2.20;;
7523;SDS011;3803;51.666;7.630;2023-02-28T00:47:26;2.40;;;2.20;;
7523;SDS011;3803;51.666;7.630;2023-02-28T00:47:47;2.10;;;2.00;;
7523;SDS011;3803;51.666;7.630;2023-02-28T00:48:09;2.30;;;2.20;;
7523;SDS011;3803;51.666;7.630;2023-02-28T00:48:33;2.55;;;2.35;;
7523;SDS011;3803;51.666;7.630;2023-02-28T00:48:53;2.50;;;2.30;;
7523;SDS011;3803;51.666;7.630;2023-02-28T00:49:14;2.65;;;2.35;;
7523;SDS011;3803;51.666;7.630;2023-02-28T00:49:36;3.55;;;2.40;;
7523;SDS011;3803;51.666;7.630;2023-02-28T00:49:56;5.03;;;2.60;;
7523;SDS011;3803;51.666;7.630;2023-02-28T00:50:17;5.30;;;2.50;;
7523;SDS011;3803;51.666;7.630;2023-02-28T00:50:40;4.13;;;2.40;;
7523;SDS011;3803;51.666;7.630;2023-02-28T00:51:00;2.65;;;2.38;;
7523;SDS011;3803;51.666;7.630;2023-02-28T00:51:22;2.75;;;2.55;;
7523;SDS011;3803;51.666;7.630;2023-02-28T00:51:42;3.22;;;2.55;;
7523;SDS011;3803;51.666;7.630;2023-02-28T00:52:03;3.40;;;2.60;;
7523;SDS011;3803;51.666;7.630;2023-02-28T00:52:24;3.27;;;2.70;;
7523;SDS011;3803;51.666;7.630;2023-02-28T00:52:44;2.80;;;2.60;;
7523;SDS011;3803;51.666;7.630;2023-02-28T00:53:05;4.32;;;2.60;;
7523;SDS011;3803;51.666;7.630;2023-02-28T00:53:26;4.90;;;2.50;;
7523;SDS011;3803;51.666;7.630;2023-02-28T00:53:46;5.17;;;2.60;;
7523;SDS011;3803;51.666;7.630;2023-02-28T00:54:07;2.83;;;2.42;;
7523;SDS011;3803;51.666;7.630;2023-02-28T00:54:27;2.50;;;2.30;;
7523;SDS011;3803;51.666;7.630;2023-02-28T00:54:48;2.40;;;2.20;;
7523;SDS011;3803;51.666;7.630;2023-02-28T00:55:09;2.40;;;2.20;;
7523;SDS011;3803;51.666;7.630;2023-02-28T00:55:30;2.45;;;2.25;;
7523;SDS011;3803;51.666;7.630;2023-02-28T00:55:50;2.67;;;2.47;;
7523;SDS011;3803;51.666;7.630;2023-02-28T00:56:11;2.75;;;2.55;;
7523;SDS011;3803;51.666;7.630;2023-02-28T00:56:32;3.40;;;2.65;;
7523;SDS011;3803;51.666;7.630;2023-02-28T00:56:52;3.33;;;2.60;;
7523;SDS011;3803;51.666;7.630;2023-02-28T00:57:13;3.40;;;2.60;;
7523;SDS011;3803;51.666;7.630;2023-02-28T00:57:33;2.70;;;2.50;;
7523;SDS011;3803;51.666;7.630;2023-02-28T00:57:54;2.37;;;2.20;;
7523;SDS011;3803;51.666;7.630;2023-02-28T00:58:14;2.45;;;2.25;;
7523;SDS011;3803;51.666;7.630;2023-02-28T00:58:35;3.17;;;2.42;;
7523;SDS011;3803;51.666;7.630;2023-02-28T00:58:56;3.50;;;2.50;;
7523;SDS011;3803;51.666;7.630;2023-02-28T00:59:17;2.90;;;2.30;;
7523;SDS011;3803;51.666;7.630;2023-02-28T00:59:38;2.15;;;2.03;;
7523;SDS011;3803;51.666;7.630;2023-02-28T01:00:00;3.15;;;2.10;;
7523;SDS011;3803;51.666;7.630;2023-02-28T01:00:21;3.85;;;2.35;;
7523;SDS011;3803;51.666;7.630;2023-02-28T01:00:44;3.25;;;2.42;;
7523;SDS011;3803;51.666;7.630;2023-02-28T01:01:09;3.38;;;2.30;;
7523;SDS011;3803;51.666;7.630;2023-02-28T01:01:31;2.20;;;2.00;;
7523;SDS011;3803;51.666;7.630;2023-02-28T01:01:53;2.30;;;2.10;;
7523;SDS011;3803;51.666;7.630;2023-02-28T01:02:15;2.30;;;2.10;;
7523;SDS011;3803;51.666;7.630;2023-02-28T01:02:36;2.60;;;2.40;;
7523;SDS011;3803;51.666;7.630;2023-02-28T01:02:57;2.60;;;2.40;;
7523;SDS011;3803;51.666;7.630;2023-02-28T01:03:18;2.60;;;2.40;;
7523;SDS011;3803;51.666;7.630;2023-02-28T01:03:41;2.22;;;2.10;;
7523;SDS011;3803;51.666;7.630;2023-02-28T01:04:02;2.20;;;2.00;;
7523;SDS011;3803;51.666;7.630;2023-02-28T01:04:23;3.63;;;2.20;;
7523;SDS011;3803;51.666;7.630;2023-02-28T01:04:43;3.63;;;2.28;;
7523;SDS011;3803;51.666;7.630;2023-02-28T01:05:04;4.40;;;2.30;;
7523;SDS011;3803;51.666;7.630;2023-02-28T01:05:25;2.88;;;2.10;;
7523;SDS011;3803;51.666;7.630;2023-02-28T01:05:46;2.35;;;1.90;;
7523;SDS011;3803;51.666;7.630;2023-02-28T01:06:07;2.00;;;1.90;;
7523;SDS011;3803;51.666;7.630;2023-02-28T01:07:16;2.28;;;2.17;;
7523;SDS011;3803;51.666;7.630;2023-02-28T01:07:37;2.20;;;2.10;;
7523;SDS011;3803;51.666;7.630;2023-02-28T01:07:58;2.58;;;2.00;;
7523;SDS011;3803;51.666;7.630;2023-02-28T01:08:19;2.58;;;2.00;;
7523;SDS011;3803;51.666;7.630;2023-02-28T01:08:39;3.10;;;2.10;;
7523;SDS011;3803;51.666;7.630;2023-02-28T01:09:00;2.38;;;2.10;;
7523;SDS011;3803;51.666;7.630;2023-02-28T01:09:21;2.10;;;1.90;;
7523;SDS011;3803;51.666;7.630;2023-02-28T01:09:41;1.90;;;1.80;;
7523;SDS011;3803;51.666;7.630;2023-02-28T01:10:02;1.80;;;1.70;;
7523;SDS011;3803;51.666;7.630;2023-02-28T01:10:22;1.90;;;1.80;;
7523;SDS011;3803;51.666;7.630;2023-02-28T01:10:43;2.17;;;1.93;;
7523;SDS011;3803;51.666;7.630;2023-02-28T01:11:10;2.10;;;1.90;;
7523;SDS011;3803;51.666;7.630;2023-02-28T01:11:34;1.90;;;1.80;;
7523;SDS011;3803;51.666;7.630;2023-02-28T01:11:55;1.90;;;1.80;;
7523;SDS011;3803;51.666;7.630;2023-02-28T01:12:16;2.00;;;1.90;;
7523;SDS011;3803;51.666;7.630;2023-02-28T01:12:37;1.95;;;1.85;;
7523;SDS011;3803;51.666;7.630;2023-02-28T01:12:57;1.90;;;1.80;;
7523;SDS011;3803;51.666;7.630;2023-02-28T01:13:18;2.00;;;1.90;;
7523;SDS011;3803;51.666;7.630;2023-02-28T01:13:40;2.85;;;1.95;;
7523;SDS011;3803;51.666;7.630;2023-02-28T01:14:01;2.83;;;2.00;;
7523;SDS011;3803;51.666;7.630;2023-02-28T01:14:22;2.67;;;1.98;;
7523;SDS011;3803;51.666;7.630;2023-02-28T01:14:43;1.90;;;1.80;;
7523;SDS011;3803;51.666;7.630;2023-02-28T01:15:03;2.00;;;1.90;;
7523;SDS011;3803;51.666;7.630;2023-02-28T01:15:24;1.90;;;1.80;;
7523;SDS011;3803;51.666;7.630;2023-02-28T01:15:46;2.00;;;1.90;;
7523;SDS011;3803;51.666;7.630;2023-02-28T01:16:11;2.10;;;1.98;;
7523;SDS011;3803;51.666;7.630;2023-02-28T01:16:32;2.20;;;2.10;;
7523;SDS011;3803;51.666;7.630;2023-02-28T01:16:53;2.15;;;2.05;;
7523;SDS011;3803;51.666;7.630;2023-02-28T01:17:19;2.13;;;1.98;;
7523;SDS011;3803;51.666;7.630;2023-02-28T01:17:40;2.10;;;2.00;;
7523;SDS011;3803;51.666;7.630;2023-02-28T01:18:00;2.25;;;2.05;;
7523;SDS011;3803;51.666;7.630;2023-02-28T01:18:21;2.20;;;2.00;;
7523;SDS011;3803;51.666;7.630;2023-02-28T01:18:42;2.20;;;2.00;;
7523;SDS011;3803;51.666;7.630;2023-02-28T01:19:03;1.90;;;1.80;;
7523;SDS011;3803;51.666;7.630;2023-02-28T01:19:23;2.00;;;1.90;;
7523;SDS011;3803;51.666;7.630;2023-02-28T01:19:44;2.00;;;1.90;;
7523;SDS011;3803;51.666;7.630;2023-02-28T01:20:05;1.80;;;1.70;;
7523;SDS011;3803;51.666;7.630;2023-02-28T01:20:26;1.80;;;1.70;;
7523;SDS011;3803;51.666;7.630;2023-02-28T01:20:47;1.70;;;1.60;;
7523;SDS011;3803;51.666;7.630;2023-02-28T01:21:09;1.88;;;1.77;;
7523;SDS011;3803;51.666;7.630;2023-02-28T01:21:32;1.90;;;1.80;;
7523;SDS011;3803;51.666;7.630;2023-02-28T01:21:53;2.00;;;1.90;;
7523;SDS011;3803;51.666;7.630;2023-02-28T01:22:13;2.13;;;1.92;;
7523;SDS011;3803;51.666;7.630;2023-02-28T01:22:36;2.08;;;1.90;;
7523;SDS011;3803;51.666;7.630;2023-02-28T01:22:56;2.03;;;1.90;;
7523;SDS011;3803;51.666;7.630;2023-02-28T01:23:18;2.30;;;2.00;;
7523;SDS011;3803;51.666;7.630;2023-02-28T01:23:41;2.90;;;1.98;;
7523;SDS011;3803;51.666;7.630;2023-02-28T01:24:03;2.20;;;2.00;;
7523;SDS011;3803;51.666;7.630;2023-02-28T01:24:24;2.55;;;1.98;;
7523;SDS011;3803;51.666;7.630;2023-02-28T01:24:45;2.90;;;2.10;;
7523;SDS011;3803;51.666;7.630;2023-02-28T01:25:06;3.20;;;2.20;;
7523;SDS011;3803;51.666;7.630;2023-02-28T01:25:27;2.30;;;2.10;;
7523;SDS011;3803;51.666;7.630;2023-02-28T01:25:48;2.20;;;2.00;;
7523;SDS011;3803;51.666;7.630;2023-02-28T01:26:11;2.25;;;2.13;;
7523;SDS011;3803;51.666;7.630;2023-02-28T01:26:33;2.50;;;2.30;;
7523;SDS011;3803;51.666;7.630;2023-02-28T01:26:55;2.70;;;2.50;;
7523;SDS011;3803;51.666;7.630;2023-02-28T01:27:16;2.53;;;2.33;;
7523;SDS011;3803;51.666;7.630;2023-02-28T01:27:37;2.58;;;2.38;;
7523;SDS011;3803;51.666;7.630;2023-02-28T01:27:59;2.20;;;2.03;;
7523;SDS011;3803;51.666;7.630;2023-02-28T01:28:21;2.30;;;2.10;;
7523;SDS011;3803;51.666;7.630;2023-02-28T01:28:42;2.40;;;2.20;;
7523;SDS011;3803;51.666;7.630;2023-02-28T01:29:02;2.58;;;2.20;;
7523;SDS011;3803;51.666;7.630;2023-02-28T01:29:23;3.10;;;2.45;;
7523;SDS011;3803;51.666;7.630;2023-02-28T01:29:44;2.70;;;2.30;;
7523;SDS011;3803;51.666;7.630;2023-02-28T01:30:05;2.53;;;2.33;;
7523;SDS011;3803;51.666;7.630;2023-02-28T01:30:30;2.38;;;2.22;;
7523;SDS011;3803;51.666;7.630;2023-02-28T01:30:50;2.55;;;2.35;;
7523;SDS011;3803;51.666;7.630;2023-02-28T01:31:12;2.60;;;2.40;;
7523;SDS011;3803;51.666;7.630;2023-02-28T01:31:32;4.93;;;2.40;;
7523;SDS011;3803;51.666;7.630;2023-02-28T01:31:53;5.20;;;2.30;;
7523;SDS011;3803;51.666;7.630;2023-02-28T01:32:19;6.60;;;2.20;;
7523;SDS011;3803;51.666;7.630;2023-02-28T01:32:40;3.15;;;2.00;;
7523;SDS011;3803;51.666;7.630;2023-02-28T01:33:00;6.28;;;2.40;;
7523;SDS011;3803;51.666;7.630;2023-02-28T01:33:21;6.47;;;2.65;;
7523;SDS011;3803;51.666;7.630;2023-02-28T01:33:42;7.00;;;2.90;;
7523;SDS011;3803;51.666;7.630;2023-02-28T01:34:02;5.40;;;3.00;;
7523;SDS011;3803;51.666;7.630;2023-02-28T01:34:23;4.15;;;3.03;;
7523;SDS011;3803;51.666;7.630;2023-02-28T01:34:45;3.65;;;2.85;;
7523;SDS011;3803;51.666;7.630;2023-02-28T01:35:05;3.28;;;2.85;;
7523;SDS011;3803;51.666;7.630;2023-02-28T01:35:26;3.00;;;2.70;;
7523;SDS011;3803;51.666;7.630;2023-02-28T01:35:48;3.75;;;3.00;;
7523;SDS011;3803;51.666;7.630;2023-02-28T01:36:09;3.40;;;2.92;;
7523;SDS011;3803;51.666;7.630;2023-02-28T01:36:40;3.50;;;3.00;;
7523;SDS011;3803;51.666;7.630;2023-02-28T01:37:00;4.50;;;2.85;;
7523;SDS011;3803;51.666;7.630;2023-02-28T01:37:21;5.60;;;2.72;;
7523;SDS011;3803;51.666;7.630;2023-02-28T01:37:42;5.68;;;2.60;;
7523;SDS011;3803;51.666;7.630;2023-02-28T01:38:02;4.00;;;2.60;;
7523;SDS011;3803;51.666;7.630;2023-02-28T01:38:23;3.88;;;2.50;;
7523;SDS011;3803;51.666;7.630;2023-02-28T01:38:43;4.00;;;2.60;;
7523;SDS011;3803;51.666;7.630;2023-02-28T01:39:05;3.90;;;2.53;;
7523;SDS011;3803;51.666;7.630;2023-02-28T01:39:25;2.70;;;2.50;;
7523;SDS011;3803;51.666;7.630;2023-02-28T01:39:46;2.60;;;2.38;;
7523;SDS011;3803;51.666;7.630;2023-02-28T01:40:07;3.97;;;2.47;;
7523;SDS011;3803;51.666;7.630;2023-02-28T01:40:28;3.83;;;2.40;;
7523;SDS011;3803;51.666;7.630;2023-02-28T01:40:50;3.45;;;2.35;;
7523;SDS011;3803;51.666;7.630;2023-02-28T01:41:15;2.47;;;2.28;;
7523;SDS011;3803;51.666;7.630;2023-02-28T01:41:42;2.60;;;2.50;;
7523;SDS011;3803;51.666;7.630;2023-02-28T01:42:03;2.83;;;2.63;;
7523;SDS011;3803;51.666;7.630;2023-02-28T01:42:24;2.65;;;2.45;;
7523;SDS011;3803;51.666;7.630;2023-02-28T01:42:44;2.60;;;2.40;;
7523;SDS011;3803;51.666;7.630;2023-02-28T01:43:10;2.20;;;2.10;;
7523;SDS011;3803;51.666;7.630;2023-02-28T01:43:53;2.20;;;2.10;;
7523;SDS011;3803;51.666;7.630;2023-02-28T01:45:18;2.17;;;2.00;;
7523;SDS011;3803;51.666;7.630;2023-02-28T01:46:25;2.20;;;2.00;;
7523;SDS011;3803;51.666;7.630;2023-02-28T01:46:47;3.15;;;2.10;;
7523;SDS011;3803;51.666;7.630;2023-02-28T01:47:08;3.00;;;2.00;;
7523;SDS011;3803;51.666;7.630;2023-02-28T01:47:30;2.30;;;2.00;;
7523;SDS011;3803;51.666;7.630;2023-02-28T01:48:02;2.00;;;1.90;;
7523;SDS011;3803;51.666;7.630;2023-02-28T01:48:27;3.10;;;2.10;;
7523;SDS011;3803;51.666;7.630;2023-02-28T01:48:57;3.10;;;2.17;;
7523;SDS011;3803;51.666;7.630;2023-02-28T01:49:21;2.13;;;2.00;;
7523;SDS011;3803;51.666;7.630;2023-02-28T01:49:42;2.50;;;2.00;;
7523;SDS011;3803;51.666;7.630;2023-02-28T01:50:04;2.45;;;1.83;;
7523;SDS011;3803;51.666;7.630;2023-02-28T01:50:28;2.10;;;1.90;;
7523;SDS011;3803;51.666;7.630;2023-02-28T01:50:53;2.13;;;2.03;;
7523;SDS011;3803;51.666;7.630;2023-02-28T01:51:21;2.20;;;2.10;;
7523;SDS011;3803;51.666;7.630;2023-02-28T01:51:52;2.13;;;2.00;;
7523;SDS011;3803;51.666;7.630;2023-02-28T01:52:16;2.10;;;1.90;;
7523;SDS011;3803;51.666;7.630;2023-02-28T01:52:41;2.20;;;2.00;;
7523;SDS011;3803;51.666;7.630;2023-02-28T01:53:04;2.40;;;2.20;;
7523;SDS011;3803;51.666;7.630;2023-02-28T01:53:37;2.40;;;2.20;;
7523;SDS011;3803;51.666;7.630;2023-02-28T01:54:05;2.30;;;2.20;;
7523;SDS011;3803;51.666;7.630;2023-02-28T01:54:33;2.45;;;2.25;;
7523;SDS011;3803;51.666;7.630;2023-02-28T01:54:55;2.40;;;2.20;;
7523;SDS011;3803;51.666;7.630;2023-02-28T01:55:19;2.28;;;2.08;;
7523;SDS011;3803;51.666;7.630;2023-02-28T01:55:42;2.00;;;1.90;;
7523;SDS011;3803;51.666;7.630;2023-02-28T01:56:09;2.00;;;1.90;;
7523;SDS011;3803;51.666;7.630;2023-02-28T01:56:33;2.03;;;1.92;;
7523;SDS011;3803;51.666;7.630;2023-02-28T01:57:03;4.18;;;2.10;;
7523;SDS011;3803;51.666;7.630;2023-02-28T01:57:29;5.60;;;2.00;;
7523;SDS011;3803;51.666;7.630;2023-02-28T01:57:58;4.20;;;2.00;;
7523;SDS011;3803;51.666;7.630;2023-02-28T01:58:22;3.08;;;2.15;;
7523;SDS011;3803;51.666;7.630;2023-02-28T01:58:43;3.53;;;2.30;;
7523;SDS011;3803;51.666;7.630;2023-02-28T01:59:03;2.58;;;2.38;;
7523;SDS011;3803;51.666;7.630;2023-02-28T01:59:33;2.88;;;2.50;;
7523;SDS011;3803;51.666;7.630;2023-02-28T02:00:09;2.45;;;2.25;;
7523;SDS011;3803;51.666;7.630;2023-02-28T02:00:33;2.10;;;2.00;;
7523;SDS011;3803;51.666;7.630;2023-02-28T02:00:54;2.03;;;1.90;;
7523;SDS011;3803;51.666;7.630;2023-02-28T02:01:14;1.75;;;1.65;;
7523;SDS011;3803;51.666;7.630;2023-02-28T02:01:41;1.83;;;1.73;;
7523;SDS011;3803;51.666;7.630;2023-02-28T02:02:02;2.05;;;1.90;;
7523;SDS011;3803;51.666;7.630;2023-02-28T02:02:23;2.25;;;1.98;;
7523;SDS011;3803;51.666;7.630;2023-02-28T02:02:46;2.35;;;2.00;;
7523;SDS011;3803;51.666;7.630;2023-02-28T02:03:10;2.40;;;2.20;;
7523;SDS011;3803;51.666;7.630;2023-02-28T02:03:33;2.20;;;2.10;;
7523;SDS011;3803;51.666;7.630;2023-02-28T02:03:57;2.33;;;2.00;;
7523;SDS011;3803;51.666;7.630;2023-02-28T02:04:21;2.50;;;2.10;;
7523;SDS011;3803;51.666;7.630;2023-02-28T02:04:55;2.40;;;2.20;;
7523;SDS011;3803;51.666;7.630;2023-02-28T02:05:22;2.20;;;2.10;;
7523;SDS011;3803;51.666;7.630;2023-02-28T02:05:45;2.17;;;2.08;;
7523;SDS011;3803;51.666;7.630;2023-02-28T02:06:08;2.20;;;2.10;;
7523;SDS011;3803;51.666;7.630;2023-02-28T02:06:30;2.20;;;2.10;;
7523;SDS011;3803;51.666;7.630;2023-02-28T02:06:55;2.38;;;2.17;;
7523;SDS011;3803;51.666;7.630;2023-02-28T02:07:15;2.20;;;2.00;;
7523;SDS011;3803;51.666;7.630;2023-02-28T02:07:39;2.00;;;1.90;;
7523;SDS011;3803;51.666;7.630;2023-02-28T02:08:04;2.00;;;1.90;;
7523;SDS011;3803;51.666;7.630;2023-02-28T02:08:27;1.90;;;1.80;;
7523;SDS011;3803;51.666;7.630;2023-02-28T02:08:49;2.00;;;1.90;;
7523;SDS011;3803;51.666;7.630;2023-02-28T02:09:10;2.40;;;2.20;;
7523;SDS011;3803;51.666;7.630;2023-02-28T02:09:31;2.47;;;2.28;;
7523;SDS011;3803;51.666;7.630;2023-02-28T02:10:02;2.38;;;2.17;;
7523;SDS011;3803;51.666;7.630;2023-02-28T02:10:41;2.10;;;2.00;;
7523;SDS011;3803;51.666;7.630;2023-02-28T02:11:04;3.30;;;2.10;;
7523;SDS011;3803;51.666;7.630;2023-02-28T02:11:29;3.83;;;2.10;;
7523;SDS011;3803;51.666;7.630;2023-02-28T02:11:51;2.30;;;2.10;;
7523;SDS011;3803;51.666;7.630;2023-02-28T02:15:12;3.55;;;2.20;;
7523;SDS011;3803;51.666;7.630;2023-02-28T02:16:25;2.20;;;2.00;;
7523;SDS011;3803;51.666;7.630;2023-02-28T02:17:11;2.53;;;2.30;;
7523;SDS011;3803;51.666;7.630;2023-02-28T02:17:40;2.60;;;1.90;;
7523;SDS011;3803;51.666;7.630;2023-02-28T02:18:09;2.30;;;2.10;;
7523;SDS011;3803;51.666;7.630;2023-02-28T02:18:43;2.90;;;2.30;;
7523;SDS011;3803;51.666;7.630;2023-02-28T02:22:03;2.63;;;2.30;;
7523;SDS011;3803;51.666;7.630;2023-02-28T02:25:51;2.20;;;2.10;;
7523;SDS011;3803;51.666;7.630;2023-02-28T02:27:39;2.33;;;1.90;;
7523;SDS011;3803;51.666;7.630;2023-02-28T02:29:01;2.45;;;2.28;;
7523;SDS011;3803;51.666;7.630;2023-02-28T02:30:57;2.10;;;2.00;;
7523;SDS011;3803;51.666;7.630;2023-02-28T02:36:05;2.30;;;2.10;;
7523;SDS011;3803;51.666;7.630;2023-02-28T02:36:35;3.30;;;2.50;;
7523;SDS011;3803;51.666;7.630;2023-02-28T02:38:03;2.25;;;2.10;;
7523;SDS011;3803;51.666;7.630;2023-02-28T02:38:32;2.30;;;2.15;;
7523;SDS011;3803;51.666;7.630;2023-02-28T02:38:58;2.28;;;2.08;;
7523;SDS011;3803;51.666;7.630;2023-02-28T02:40:27;2.20;;;2.10;;
7523;SDS011;3803;51.666;7.630;2023-02-28T02:41:00;2.10;;;2.00;;
7523;SDS011;3803;51.666;7.630;2023-02-28T02:41:53;2.00;;;1.90;;
7523;SDS011;3803;51.666;7.630;2023-02-28T02:42:15;2.00;;;1.90;;
7523;SDS011;3803;51.666;7.630;2023-02-28T02:43:29;2.20;;;2.10;;
7523;SDS011;3803;51.666;7.630;2023-02-28T02:44:02;2.92;;;2.20;;
7523;SDS011;3803;51.666;7.630;2023-02-28T02:44:36;3.22;;;2.38;;
7523;SDS011;3803;51.666;7.630;2023-02-28T02:45:06;2.55;;;2.35;;
7523;SDS011;3803;51.666;7.630;2023-02-28T02:45:47;2.50;;;2.30;;
7523;SDS011;3803;51.666;7.630;2023-02-28T02:46:32;4.28;;;2.20;;